Главная страница
METAR-TAF:

METAR-TAF

Аэропорты :

Грозный, Россия

широта: 43-23-18N, долгота: 045-41-59E, высота над уровнем моря: 167 м

Текущие метеонаблюдения

Эта сводка был подготовлена 34 минут назад, в 21:00 UTC
Штиль
Температура 9°C
Влажность 93%
Давление 1019 hPa
Видимость: 5000 м
дымка

METAR: URMG 202100Z 00000MPS 5000 BR NSC 09/08 Q1019 R26/000070 NOSIG RMK QFE749/0999

Время: 00:34 (21:34 UTC)

Прогноз

Эта сводка был подготовлена 1 час и 34 минут назад, в 20:00 UTC
Прогноз действительный с 20-го 21 UTC до 21-го 06 UTC
Ветер 4 Узел переменных направлений
Видимость: 1000 м
Отдельные облака на высоте 300 фута
дымка
временами
С 20-го 21 UTC до 21-го 03 UTC
Ветер 8 Узел от западный-юго-западный
Видимость: 0400 м
Рассеянная облачность на высоте 200 фута
туман

TAF: URMG 202000Z 2021/2106 VRB02MPS 1000 BR SCT003 TEMPO 2021/2103 24004MPS 0400 FG BKN002

Метеонаблюдения и прогнозы для более 4000 аэропортов (сводки METAR и TAF).

Имеющиеся станции представлены на карте желтыми и красными точками.

Чтобы увидеть название станции, наведите на нее мышь.

Затем щелкните, чтобы увидеть метеонаблюдения и метеопрогнозы.

Управление картой: чтобы увеличить масштаб, щелкните зеленые кнопки с черным крестиком; чтобы уменьшить масштаб, щелкните зеленую кнопку с тире; для просмотра соседних карт щелкайте зеленые стрелки.


METAR-TAF: